createdAt,value
2018-10-17T00:00:17.948Z,101317.64
2018-10-17T00:02:48.608Z,101323.16
2018-10-17T00:05:18.635Z,101323.83
2018-10-17T00:07:48.045Z,101321.81
2018-10-17T00:10:17.666Z,101317.14
2018-10-17T00:12:47.444Z,101324.20
2018-10-17T00:15:16.810Z,101317.74
2018-10-17T00:17:46.371Z,101320.97
2018-10-17T00:20:15.716Z,101322.86
2018-10-17T00:22:45.592Z,101312.80
2018-10-17T00:25:15.200Z,101315.52
2018-10-17T00:27:44.585Z,101313.62
2018-10-17T00:30:14.899Z,101311.93
2018-10-17T00:32:44.153Z,101301.93
2018-10-17T00:35:13.393Z,101293.94
2018-10-17T00:37:42.685Z,101292.80
2018-10-17T00:40:12.152Z,101299.46
2018-10-17T00:42:41.428Z,101303.65
2018-10-17T00:45:11.105Z,101305.63
2018-10-17T00:47:40.399Z,101304.59
2018-10-17T00:50:09.895Z,101301.16
2018-10-17T00:52:39.345Z,101302.98
2018-10-17T00:55:08.752Z,101303.73
2018-10-17T00:57:38.114Z,101301.53
2018-10-17T01:00:07.457Z,101295.47
2018-10-17T01:02:36.923Z,101293.36
2018-10-17T01:05:06.324Z,101292.03
2018-10-17T01:07:35.568Z,101290.14
2018-10-17T01:10:05.245Z,101291.72
2018-10-17T01:12:34.648Z,101305.63
2018-10-17T01:15:05.169Z,101296.00
2018-10-17T01:17:34.715Z,101295.63
2018-10-17T01:20:04.193Z,101286.31
2018-10-17T01:22:34.612Z,101285.84
2018-10-17T01:25:04.844Z,101282.31
2018-10-17T01:27:35.836Z,101287.36
2018-10-17T01:30:06.244Z,101283.00
2018-10-17T01:32:36.131Z,101286.31
2018-10-17T01:35:06.997Z,101286.03
2018-10-17T01:37:36.547Z,101285.63
2018-10-17T01:40:07.361Z,101281.83
2018-10-17T01:42:37.224Z,101280.59
2018-10-17T01:45:08.209Z,101286.09
2018-10-17T01:47:39.075Z,101282.20
2018-10-17T01:50:09.260Z,101285.52
2018-10-17T01:52:39.648Z,101282.48
2018-10-17T01:55:09.280Z,101287.13
2018-10-17T01:57:38.504Z,101287.21
2018-10-17T02:00:08.032Z,101283.78
2018-10-17T02:02:37.586Z,101282.08
2018-10-17T02:05:07.009Z,101279.56
2018-10-17T02:07:36.393Z,101284.61
2018-10-17T02:10:05.717Z,101283.83
2018-10-17T02:12:35.125Z,101279.16
2018-10-17T02:15:04.453Z,101281.91
2018-10-17T02:17:33.923Z,101283.80
2018-10-17T02:20:03.401Z,101279.44
2018-10-17T02:22:32.651Z,101281.23
2018-10-17T02:25:02.196Z,101277.83
2018-10-17T02:27:32.177Z,101282.74
2018-10-17T02:30:01.873Z,101278.75
2018-10-17T02:32:31.216Z,101281.59
2018-10-17T02:35:20.228Z,101285.13
2018-10-17T02:37:49.667Z,101285.21
2018-10-17T02:40:19.106Z,101287.50
2018-10-17T02:42:48.410Z,101285.86
2018-10-17T02:45:17.768Z,101287.68
2018-10-17T02:47:47.253Z,101280.63
2018-10-17T02:50:16.563Z,101280.25
2018-10-17T02:52:46.118Z,101276.91
2018-10-17T02:55:15.572Z,101287.27
2018-10-17T02:57:44.945Z,101285.16
2018-10-17T03:00:14.281Z,101289.52
2018-10-17T03:02:43.973Z,101282.59
2018-10-17T03:05:13.478Z,101283.64
2018-10-17T03:07:42.903Z,101289.51
2018-10-17T03:10:12.221Z,101287.86
2018-10-17T03:12:42.825Z,101291.56
2018-10-17T03:15:30.405Z,101291.10
2018-10-17T03:18:02.341Z,101288.45
2018-10-17T03:20:31.727Z,101303.07
2018-10-17T03:23:00.941Z,101298.30
2018-10-17T03:25:30.227Z,101299.72
2018-10-17T03:27:59.670Z,101304.27
2018-10-17T03:30:29.239Z,101306.08
2018-10-17T03:32:58.533Z,101306.17
2018-10-17T03:35:27.780Z,101303.52
2018-10-17T03:37:57.001Z,101301.78
2018-10-17T03:40:26.235Z,101297.41
2018-10-17T03:42:55.606Z,101300.63
2018-10-17T03:45:24.985Z,101301.58
2018-10-17T03:47:54.226Z,101304.98
2018-10-17T03:50:23.554Z,101304.61
2018-10-17T03:52:52.757Z,101301.58
2018-10-17T03:55:21.979Z,101306.12
2018-10-17T03:57:51.502Z,101300.80
2018-10-17T04:00:20.773Z,101306.58
2018-10-17T04:02:50.148Z,101308.41
2018-10-17T04:05:19.610Z,101311.52
2018-10-17T04:07:48.794Z,101308.95
2018-10-17T04:10:18.258Z,101306.76
2018-10-17T04:12:47.658Z,101310.83
2018-10-17T04:15:17.814Z,101313.11
2018-10-17T04:17:50.798Z,101310.92
2018-10-17T04:20:20.469Z,101312.34
2018-10-17T04:22:57.635Z,101312.16
2018-10-17T04:25:27.033Z,101313.48
2018-10-17T04:27:56.364Z,101305.34
2018-10-17T04:30:26.179Z,101304.79
2018-10-17T04:32:56.229Z,101306.38
2018-10-17T04:35:25.783Z,101309.50
2018-10-17T04:37:55.304Z,101311.00
2018-10-17T04:40:24.806Z,101310.31
2018-10-17T04:42:55.099Z,101306.59
2018-10-17T04:45:24.766Z,101303.55
2018-10-17T04:47:54.316Z,101304.97
2018-10-17T04:50:23.856Z,101316.06
2018-10-17T04:52:53.515Z,101310.00
2018-10-17T04:55:23.650Z,101305.61
2018-10-17T04:57:53.010Z,101302.11
2018-10-17T05:00:22.415Z,101295.70
2018-10-17T05:02:52.051Z,101301.50
2018-10-17T05:05:21.456Z,101297.61
2018-10-17T05:07:51.099Z,101300.81
2018-10-17T05:10:21.441Z,101305.83
2018-10-17T05:12:51.031Z,101314.35
2018-10-17T05:15:20.419Z,101319.29
2018-10-17T05:17:49.787Z,101324.28
2018-10-17T05:20:19.051Z,101332.08
2018-10-17T05:22:48.511Z,101329.75
2018-10-17T05:25:18.083Z,101330.04
2018-10-17T05:27:48.125Z,101334.48
2018-10-17T05:30:17.965Z,101334.89
2018-10-17T05:32:47.405Z,101342.54
2018-10-17T05:35:17.085Z,101335.35
2018-10-17T05:37:47.741Z,101335.35
2018-10-17T05:40:17.861Z,101337.14
2018-10-17T05:42:48.647Z,101340.12
2018-10-17T05:45:18.128Z,101337.47
2018-10-17T05:47:47.700Z,101337.47
2018-10-17T05:50:17.510Z,101330.23
2018-10-17T05:52:46.872Z,101340.23
2018-10-17T05:55:16.288Z,101338.08
2018-10-17T05:57:45.518Z,101334.23
2018-10-17T06:00:16.106Z,101335.56
2018-10-17T06:02:45.499Z,101343.16
2018-10-17T06:05:14.889Z,101349.02
2018-10-17T06:07:44.138Z,101353.00
2018-10-17T06:10:15.110Z,101348.92
2018-10-17T06:12:44.606Z,101348.47
2018-10-17T06:15:14.285Z,101344.56
2018-10-17T06:17:43.659Z,101344.11
2018-10-17T06:20:13.806Z,101353.33
2018-10-17T06:22:43.239Z,101355.02
2018-10-17T06:25:13.005Z,101355.81
2018-10-17T06:27:43.230Z,101352.83
2018-10-17T06:30:13.246Z,101352.77
2018-10-17T06:32:42.846Z,101350.17
2018-10-17T06:35:13.394Z,101351.50
2018-10-17T06:37:43.084Z,101362.54
2018-10-17T06:40:12.590Z,101362.21
2018-10-17T06:42:42.041Z,101361.55
2018-10-17T06:45:12.014Z,101358.19
2018-10-17T06:47:41.696Z,101361.14
2018-10-17T06:50:11.203Z,101362.27
2018-10-17T06:52:40.680Z,101360.64
2018-10-17T06:55:10.388Z,101362.11
2018-10-17T06:57:40.557Z,101357.42
2018-10-17T07:00:11.078Z,101366.31
2018-10-17T07:02:40.604Z,101368.97
2018-10-17T07:05:11.370Z,101364.60
2018-10-17T07:07:41.646Z,101373.52
2018-10-17T07:10:11.429Z,101370.08
2018-10-17T07:12:40.827Z,101373.11
2018-10-17T07:15:10.439Z,101369.92
2018-10-17T07:17:39.911Z,101368.97
2018-10-17T07:20:09.952Z,101373.69
2018-10-17T07:22:39.530Z,101367.42
2018-10-17T07:25:08.820Z,101368.12
2018-10-17T07:27:38.473Z,101367.20
2018-10-17T07:30:09.026Z,101366.25
2018-10-17T07:32:38.467Z,101367.58
2018-10-17T07:35:09.668Z,101372.26
2018-10-17T07:37:40.050Z,101366.78
2018-10-17T07:40:09.384Z,101370.19
2018-10-17T07:42:38.847Z,101367.45
2018-10-17T07:45:08.377Z,101373.16
2018-10-17T07:47:37.713Z,101378.48
2018-10-17T07:50:08.278Z,101376.69
2018-10-17T07:52:37.828Z,101374.16
2018-10-17T07:55:08.815Z,101374.16
2018-10-17T07:57:38.247Z,101373.03
2018-10-17T08:00:11.760Z,101368.79
2018-10-17T08:02:42.213Z,101369.48
2018-10-17T08:05:11.719Z,101376.74
2018-10-17T08:07:41.100Z,101377.44
2018-10-17T08:10:11.394Z,101383.83
2018-10-17T08:12:40.902Z,101374.95
2018-10-17T08:15:10.638Z,101375.16
2018-10-17T08:17:39.912Z,101374.42
2018-10-17T08:20:11.310Z,101377.72
2018-10-17T08:22:40.961Z,101378.69
2018-10-17T08:25:12.208Z,101381.95
2018-10-17T08:27:42.593Z,101390.13
2018-10-17T08:30:12.173Z,101383.16
2018-10-17T08:32:41.836Z,101388.11
2018-10-17T08:35:11.209Z,101390.91
2018-10-17T08:37:41.124Z,101394.27
2018-10-17T08:40:09.946Z,101400.36
2018-10-17T08:42:39.319Z,101384.30
2018-10-17T08:45:08.799Z,101388.95
2018-10-17T08:47:39.126Z,101391.05
2018-10-17T08:50:08.739Z,101391.28
2018-10-17T08:52:37.965Z,101398.90
2018-10-17T08:55:07.584Z,101403.54
2018-10-17T08:57:36.907Z,101407.91
2018-10-17T09:00:07.410Z,101411.81
2018-10-17T09:02:36.779Z,101404.13
2018-10-17T09:05:06.241Z,101409.46
2018-10-17T09:07:35.816Z,101404.55
2018-10-17T09:10:06.165Z,101412.48
2018-10-17T09:12:36.024Z,101415.51
2018-10-17T09:15:07.030Z,101412.38
2018-10-17T09:17:37.043Z,101418.11
2018-10-17T09:20:08.018Z,101413.94
2018-10-17T09:22:37.221Z,101411.27
2018-10-17T09:25:06.737Z,101412.25
2018-10-17T09:27:36.347Z,101416.00
2018-10-17T09:30:06.693Z,101420.08
2018-10-17T09:32:36.172Z,101416.38
2018-10-17T09:35:06.527Z,101420.46
2018-10-17T09:37:36.352Z,101419.20
2018-10-17T09:40:07.028Z,101417.89
2018-10-17T09:42:36.481Z,101415.02
2018-10-17T09:45:07.134Z,101418.94
2018-10-17T09:47:36.791Z,101417.30
2018-10-17T09:50:07.403Z,101414.81
2018-10-17T09:52:36.817Z,101419.38
2018-10-17T09:55:07.273Z,101414.88
2018-10-17T09:57:36.634Z,101417.81
2018-10-17T10:03:44.598Z,101409.21
2018-10-17T10:06:13.940Z,101405.41
2018-10-17T10:08:43.600Z,101412.89
2018-10-17T10:11:13.001Z,101412.88
2018-10-17T10:13:42.345Z,101407.97
2018-10-17T10:16:11.800Z,101407.59
2018-10-17T10:18:41.263Z,101403.61
2018-10-17T10:21:10.772Z,101402.59
2018-10-17T10:23:40.353Z,101409.35
2018-10-17T10:26:09.693Z,101402.83
2018-10-17T10:28:39.287Z,101403.37
2018-10-17T10:31:08.675Z,101407.72
2018-10-17T10:33:38.367Z,101398.16
2018-10-17T10:36:07.596Z,101397.25
2018-10-17T10:38:37.029Z,101398.73
2018-10-17T10:41:07.045Z,101390.39
2018-10-17T10:43:36.689Z,101391.84
2018-10-17T10:46:07.036Z,101391.12
2018-10-17T10:48:36.849Z,101395.20
2018-10-17T10:51:07.039Z,101386.31
2018-10-17T10:53:36.592Z,101387.43
2018-10-17T10:56:06.621Z,101381.50
2018-10-17T10:58:36.220Z,101382.98
2018-10-17T11:01:06.480Z,101377.84
2018-10-17T11:03:36.036Z,101376.06
2018-10-17T11:06:06.129Z,101374.67
2018-10-17T11:08:36.149Z,101373.47
2018-10-17T11:11:06.571Z,101372.66
2018-10-17T11:13:35.928Z,101373.78
2018-10-17T11:16:05.470Z,101369.94
2018-10-17T11:18:35.077Z,101371.83
2018-10-17T11:21:04.712Z,101365.43
2018-10-17T11:23:35.208Z,101363.87
2018-10-17T11:26:04.571Z,101362.89
2018-10-17T11:28:34.769Z,101359.03
2018-10-17T11:31:04.089Z,101350.58
2018-10-17T11:33:33.580Z,101353.91
2018-10-17T11:36:03.362Z,101351.52
2018-10-17T11:38:32.791Z,101353.49
2018-10-17T11:41:02.904Z,101350.11
2018-10-17T11:43:32.780Z,101351.84
2018-10-17T11:46:02.577Z,101357.84
2018-10-17T11:48:33.669Z,101351.30
2018-10-17T11:51:03.122Z,101354.56
2018-10-17T11:53:33.087Z,101351.41
2018-10-17T11:56:02.834Z,101347.52
2018-10-17T11:58:32.269Z,101348.91
2018-10-17T12:01:01.770Z,101338.61
2018-10-17T12:03:31.810Z,101340.02
2018-10-17T12:06:01.288Z,101342.45
2018-10-17T12:08:30.586Z,101334.34
2018-10-17T12:11:00.030Z,101342.77
2018-10-17T12:13:29.589Z,101333.22
2018-10-17T12:15:59.058Z,101339.28
2018-10-17T12:18:29.303Z,101337.96
2018-10-17T12:20:58.963Z,101333.21
2018-10-17T12:23:31.788Z,101331.53
2018-10-17T12:26:01.211Z,101324.93
2018-10-17T12:28:30.779Z,101325.13
2018-10-17T12:31:00.413Z,101327.17
2018-10-17T12:33:30.226Z,101324.44
2018-10-17T12:35:59.559Z,101333.13
2018-10-17T12:38:30.334Z,101326.22
2018-10-17T12:40:59.957Z,101323.43
2018-10-17T12:43:29.388Z,101324.22
2018-10-17T12:45:59.633Z,101323.97
2018-10-17T12:48:29.027Z,101315.59
2018-10-17T12:50:58.565Z,101321.17
2018-10-17T12:53:27.976Z,101317.40
2018-10-17T12:55:57.477Z,101318.20
2018-10-17T12:58:26.884Z,101320.60
2018-10-17T13:00:56.331Z,101316.31
2018-10-17T13:03:25.699Z,101308.98
2018-10-17T13:05:55.041Z,101310.20
2018-10-17T13:08:24.542Z,101308.69
2018-10-17T13:10:54.265Z,101312.33
2018-10-17T13:13:24.071Z,101305.94
2018-10-17T13:15:53.463Z,101308.22
2018-10-17T13:18:22.833Z,101306.77
2018-10-17T13:20:52.188Z,101301.67
2018-10-17T13:23:21.642Z,101301.14
2018-10-17T13:25:51.021Z,101297.53
2018-10-17T13:28:20.410Z,101290.05
2018-10-17T13:30:50.392Z,101295.19
2018-10-17T13:33:19.640Z,101286.91
2018-10-17T13:35:49.098Z,101289.25
2018-10-17T13:38:18.445Z,101282.93
2018-10-17T13:40:48.576Z,101291.23
2018-10-17T13:43:17.988Z,101287.14
2018-10-17T13:45:47.418Z,101286.41
2018-10-17T13:48:16.902Z,101293.14
2018-10-17T13:50:46.344Z,101284.39
2018-10-17T13:53:15.922Z,101289.09
2018-10-17T13:55:45.325Z,101285.72
2018-10-17T13:58:15.000Z,101281.69
2018-10-17T14:00:45.470Z,101279.06
2018-10-17T14:03:15.119Z,101275.73
2018-10-17T14:05:44.529Z,101275.08
2018-10-17T14:08:13.965Z,101282.61
2018-10-17T14:10:43.295Z,101284.91
2018-10-17T14:13:13.015Z,101284.59
2018-10-17T14:15:42.681Z,101282.98
2018-10-17T14:18:12.317Z,101279.45
2018-10-17T14:20:41.953Z,101279.62
2018-10-17T14:23:11.363Z,101278.24
2018-10-17T14:25:41.071Z,101276.85
2018-10-17T14:28:10.558Z,101275.65
2018-10-17T14:30:39.852Z,101273.81
2018-10-17T14:33:09.281Z,101266.65
2018-10-17T14:35:38.876Z,101266.69
2018-10-17T14:38:09.818Z,101271.83
2018-10-17T14:40:39.340Z,101264.91
2018-10-17T14:43:08.882Z,101270.85
2018-10-17T14:45:39.443Z,101266.75
2018-10-17T14:48:09.487Z,101267.33
2018-10-17T14:50:38.801Z,101266.23
2018-10-17T14:53:09.629Z,101271.03
2018-10-17T14:55:39.137Z,101268.52
2018-10-17T14:58:08.929Z,101270.66
2018-10-17T15:00:39.271Z,101269.98
2018-10-17T15:03:08.688Z,101270.23
2018-10-17T15:05:39.766Z,101263.05
2018-10-17T15:08:09.216Z,101265.31
2018-10-17T15:10:38.866Z,101266.65
2018-10-17T15:13:08.436Z,101269.95
2018-10-17T15:15:39.886Z,101277.83
2018-10-17T15:18:09.696Z,101274.34
2018-10-17T15:20:39.902Z,101282.13
2018-10-17T15:23:09.775Z,101277.89
2018-10-17T15:25:40.068Z,101274.60
2018-10-17T15:28:09.814Z,101277.29
2018-10-17T15:30:39.399Z,101281.05
2018-10-17T15:33:08.849Z,101276.56
2018-10-17T15:35:38.382Z,101280.13
2018-10-17T15:38:08.238Z,101276.97
2018-10-17T15:40:37.561Z,101281.74
2018-10-17T15:43:06.882Z,101283.62
2018-10-17T15:45:36.195Z,101280.47
2018-10-17T15:48:05.879Z,101276.30
2018-10-17T15:50:35.344Z,101278.91
2018-10-17T15:53:04.884Z,101283.16
2018-10-17T15:55:34.252Z,101278.82
2018-10-17T15:58:04.392Z,101284.28
2018-10-17T16:00:34.181Z,101290.66
2018-10-17T16:03:03.873Z,101289.08
2018-10-17T16:05:33.534Z,101287.64
2018-10-17T16:08:02.907Z,101290.20
2018-10-17T16:10:32.511Z,101291.63
2018-10-17T16:13:02.533Z,101288.69
2018-10-17T16:15:32.346Z,101297.75
2018-10-17T16:18:02.809Z,101294.49
2018-10-17T16:20:32.272Z,101295.00
2018-10-17T16:23:03.494Z,101303.92
2018-10-17T16:25:32.904Z,101300.66
2018-10-17T16:28:03.534Z,101306.89
2018-10-17T16:30:33.277Z,101304.23
2018-10-17T16:33:03.452Z,101306.88
2018-10-17T16:35:33.070Z,101310.68
2018-10-17T16:38:02.794Z,101317.77
2018-10-17T16:40:32.327Z,101324.58
2018-10-17T16:43:09.409Z,101323.62
2018-10-17T16:45:38.976Z,101326.30
2018-10-17T16:48:08.482Z,101328.64
2018-10-17T16:50:38.807Z,101330.44
2018-10-17T16:53:08.140Z,101337.03
2018-10-17T16:55:37.475Z,101331.30
2018-10-17T16:58:07.139Z,101340.06
2018-10-17T17:00:36.837Z,101342.36
2018-10-17T17:03:06.441Z,101341.58
2018-10-17T17:05:36.449Z,101336.34
2018-10-17T17:08:06.158Z,101349.75
2018-10-17T17:10:35.730Z,101346.08
2018-10-17T17:13:05.748Z,101350.58
2018-10-17T17:15:35.375Z,101350.82
2018-10-17T17:18:05.165Z,101357.25
2018-10-17T17:20:34.621Z,101356.38
2018-10-17T17:23:04.073Z,101363.08
2018-10-17T17:25:33.535Z,101354.05
2018-10-17T17:28:03.203Z,101348.66
2018-10-17T17:30:32.689Z,101359.13
2018-10-17T17:33:03.722Z,101358.38
2018-10-17T17:35:33.832Z,101360.82
2018-10-17T17:38:04.583Z,101361.77
2018-10-17T17:40:34.166Z,101372.07
2018-10-17T17:43:03.835Z,101370.09
2018-10-17T17:45:33.447Z,101375.09
2018-10-17T17:48:03.060Z,101376.50
2018-10-17T17:50:32.604Z,101386.78
2018-10-17T17:53:02.416Z,101381.25
2018-10-17T17:55:32.460Z,101390.75
2018-10-17T17:58:01.983Z,101390.11
2018-10-17T18:00:32.465Z,101392.97
2018-10-17T18:03:01.873Z,101396.57
2018-10-17T18:05:31.434Z,101398.47
2018-10-17T18:08:01.270Z,101395.05
2018-10-17T18:10:30.719Z,101398.41
2018-10-17T18:13:00.149Z,101400.91
2018-10-17T18:15:29.591Z,101403.49
2018-10-17T18:17:59.211Z,101398.50
2018-10-17T18:20:28.811Z,101404.77
2018-10-17T18:22:58.280Z,101404.63
2018-10-17T18:25:27.833Z,101401.31
2018-10-17T18:27:58.415Z,101410.53
2018-10-17T18:30:27.958Z,101414.27
2018-10-17T18:32:57.348Z,101418.39
2018-10-17T18:35:26.768Z,101422.73
2018-10-17T18:37:56.901Z,101425.04
2018-10-17T18:40:26.759Z,101427.28
2018-10-17T18:42:56.433Z,101426.31
2018-10-17T18:45:26.506Z,101427.86
2018-10-17T18:47:55.954Z,101430.86
2018-10-17T18:50:25.285Z,101433.39
2018-10-17T18:52:54.827Z,101433.39
2018-10-17T18:55:24.225Z,101433.31
2018-10-17T18:57:53.645Z,101435.45
2018-10-17T19:00:23.588Z,101439.20
2018-10-17T19:02:53.132Z,101438.91
2018-10-17T19:05:29.034Z,101439.02
2018-10-17T19:07:58.722Z,101444.08
2018-10-17T19:10:28.193Z,101449.73
2018-10-17T19:12:57.651Z,101445.18
2018-10-17T19:15:27.136Z,101448.61
2018-10-17T19:17:56.609Z,101447.23
2018-10-17T19:20:26.758Z,101448.95
2018-10-17T19:22:57.264Z,101455.63
2018-10-17T19:25:26.929Z,101450.89
2018-10-17T19:27:59.455Z,101460.83
2018-10-17T19:30:29.867Z,101461.90
2018-10-17T19:33:00.332Z,101461.61
2018-10-17T19:35:30.198Z,101464.67
2018-10-17T19:38:00.470Z,101473.63
2018-10-17T19:40:30.117Z,101471.66
2018-10-17T19:42:59.751Z,101475.75
2018-10-17T19:45:29.201Z,101477.08
2018-10-17T19:47:58.730Z,101471.01
2018-10-17T19:50:28.835Z,101471.22
2018-10-17T19:52:58.952Z,101478.46
2018-10-17T19:55:29.514Z,101475.33
2018-10-17T19:57:59.614Z,101479.08
2018-10-17T20:00:29.211Z,101478.01
2018-10-17T20:02:59.237Z,101474.67
2018-10-17T20:05:28.542Z,101482.06
2018-10-17T20:07:58.330Z,101475.75
2018-10-17T20:10:27.704Z,101480.41
2018-10-17T20:12:57.803Z,101483.09
2018-10-17T20:15:27.308Z,101478.36
2018-10-17T20:17:57.083Z,101480.47
2018-10-17T20:20:26.665Z,101481.13
2018-10-17T20:22:56.273Z,101484.07
2018-10-17T20:25:25.778Z,101486.78
2018-10-17T20:27:55.569Z,101488.31
2018-10-17T20:30:25.006Z,101495.19
2018-10-17T20:32:54.983Z,101494.13
2018-10-17T20:35:24.470Z,101495.45
2018-10-17T20:37:53.849Z,101493.45
2018-10-17T20:40:23.286Z,101500.80
2018-10-17T20:42:52.949Z,101495.49
2018-10-17T20:45:23.165Z,101494.99
2018-10-17T20:47:52.600Z,101497.56
2018-10-17T20:50:21.901Z,101502.83
2018-10-17T20:52:51.438Z,101497.75
2018-10-17T20:55:21.132Z,101499.75
2018-10-17T20:57:50.577Z,101499.88
2018-10-17T21:00:20.196Z,101501.58
2018-10-17T21:02:49.511Z,101501.41
2018-10-17T21:05:18.854Z,101499.31
2018-10-17T21:07:48.239Z,101502.73
2018-10-17T21:10:17.699Z,101509.67
2018-10-17T21:12:47.261Z,101510.56
2018-10-17T21:15:17.121Z,101513.70
2018-10-17T21:17:47.103Z,101509.72
2018-10-17T21:20:16.895Z,101516.08
2018-10-17T21:22:46.351Z,101513.61
2018-10-17T21:25:16.030Z,101517.70
2018-10-17T21:27:45.601Z,101514.38
2018-10-17T21:30:15.114Z,101515.31
2018-10-17T21:32:45.158Z,101518.95
2018-10-17T21:35:14.643Z,101517.80
2018-10-17T21:37:44.180Z,101516.76
2018-10-17T21:40:14.065Z,101520.85
2018-10-17T21:42:44.138Z,101523.98
2018-10-17T21:45:14.537Z,101527.98
2018-10-17T21:47:45.061Z,101524.95
2018-10-17T21:50:14.918Z,101533.33
2018-10-17T21:52:44.342Z,101526.27
2018-10-17T21:55:13.913Z,101523.39
2018-10-17T21:57:43.356Z,101533.69
2018-10-17T22:00:13.411Z,101528.36
2018-10-17T22:02:42.876Z,101523.21
2018-10-17T22:05:12.388Z,101520.61
2018-10-17T22:07:41.748Z,101522.44
2018-10-17T22:10:11.099Z,101529.48
2018-10-17T22:12:40.952Z,101528.66
2018-10-17T22:15:11.124Z,101536.20
2018-10-17T22:17:40.903Z,101537.41
2018-10-17T22:20:10.629Z,101539.29
2018-10-17T22:22:40.072Z,101540.71
2018-10-17T22:25:09.580Z,101538.14
2018-10-17T22:27:38.918Z,101534.19
2018-10-17T22:30:08.645Z,101540.95
2018-10-17T22:32:38.437Z,101544.20
2018-10-17T22:35:07.709Z,101535.97
2018-10-17T22:37:38.031Z,101540.62
2018-10-17T22:40:07.517Z,101539.92
2018-10-17T22:42:36.959Z,101538.39
2018-10-17T22:45:06.788Z,101537.23
2018-10-17T22:47:36.191Z,101540.81
2018-10-17T22:50:07.105Z,101543.56
2018-10-17T22:52:36.526Z,101540.58
2018-10-17T22:55:05.951Z,101539.25
2018-10-17T22:57:35.275Z,101545.84
2018-10-17T23:00:04.829Z,101545.33
2018-10-17T23:02:34.332Z,101545.87
2018-10-17T23:05:03.693Z,101545.36
2018-10-17T23:07:33.329Z,101541.63
2018-10-17T23:10:02.719Z,101546.00
2018-10-17T23:12:32.651Z,101548.75
2018-10-17T23:15:02.214Z,101544.75
2018-10-17T23:17:31.915Z,101549.18
2018-10-17T23:20:01.285Z,101552.19
2018-10-17T23:22:30.654Z,101546.14
2018-10-17T23:25:00.990Z,101550.12
2018-10-17T23:27:31.655Z,101549.45
2018-10-17T23:30:01.597Z,101546.97
2018-10-17T23:32:31.546Z,101549.39
2018-10-17T23:35:01.252Z,101545.95
2018-10-17T23:37:31.233Z,101547.94
2018-10-17T23:40:02.009Z,101544.78
2018-10-17T23:42:31.419Z,101549.98
2018-10-17T23:45:03.066Z,101545.80
2018-10-17T23:47:33.259Z,101548.55
2018-10-17T23:50:02.655Z,101549.66
2018-10-17T23:52:32.084Z,101552.37
2018-10-17T23:55:01.747Z,101548.34
2018-10-17T23:57:31.181Z,101556.86
